| time (UTC) | temp C | wind direction | speed KPH | gust KPH | rain 1hr cm | rain 24hr cm | rain mn cm | humidity % | barometer mb |
| 20260507234504 | 15 | 300 | 9.7 | 14.5 | 0.00 | 0.33 | 0.30 | 35 | 1006.1 |
| 20260507234006 | 15 | 302 | 8.0 | 16.1 | 0.00 | 0.33 | 0.30 | 35 | 1006.0 |
| 20260507233505 | 15 | 278 | 6.4 | 19.3 | 0.00 | 0.33 | 0.30 | 35 | 1006.1 |
| 20260507232504 | 16 | 286 | 9.7 | 19.3 | 0.00 | 0.36 | 0.30 | 34 | 1006.0 |
| 20260507232007 | 16 | 304 | 11.3 | 20.9 | 0.00 | 0.36 | 0.30 | 34 | 1005.9 |
| 20260507231504 | 16 | 283 | 4.8 | 19.3 | 0.00 | 0.36 | 0.30 | 34 | 1005.8 |
| 20260507231005 | 16 | 329 | 8.0 | 20.9 | 0.00 | 0.36 | 0.30 | 34 | 1005.8 |
| 20260507230504 | 16 | 308 | 6.4 | 24.1 | 0.00 | 0.36 | 0.30 | 33 | 1005.7 |
| 20260507230004 | 16 | 272 | 6.4 | 16.1 | 0.00 | 0.36 | 0.30 | 34 | 1005.7 |
| 20260507225504 | 16 | 284 | 16.1 | 24.1 | 0.00 | 0.36 | 0.30 | 32 | 1005.6 |
| 20260507225007 | 16 | 245 | 12.9 | 25.7 | 0.00 | 0.36 | 0.30 | 33 | 1005.6 |
| 20260507224006 | 16 | 329 | 8.0 | 19.3 | 0.00 | 0.36 | 0.30 | 33 | 1005.6 |
| 20260507223504 | 16 | 334 | 9.7 | 29.0 | 0.00 | 0.36 | 0.30 | 33 | 1005.5 |
| 20260507223005 | 16 | 309 | 14.5 | 20.9 | 0.00 | 0.36 | 0.30 | 32 | 1005.5 |
| 20260507222504 | 16 | 301 | 11.3 | 24.1 | 0.00 | 0.36 | 0.30 | 32 | 1005.5 |
| 20260507221504 | 17 | 288 | 16.1 | 33.8 | 0.00 | 0.36 | 0.30 | 32 | 1005.3 |
| 20260507221005 | 17 | 216 | 9.7 | 22.5 | 0.00 | 0.36 | 0.30 | 32 | 1005.3 |
| 20260507220504 | 17 | 320 | 14.5 | 24.1 | 0.00 | 0.36 | 0.30 | 32 | 1005.3 |
| 20260507220005 | 17 | 290 | 19.3 | 25.7 | 0.00 | 0.36 | 0.30 | 31 | 1005.2 |
| 20260507215504 | 17 | 303 | 6.4 | 20.9 | 0.00 | 0.36 | 0.30 | 33 | 1005.1 |
| 20260507215006 | 17 | 297 | 6.4 | 20.9 | 0.00 | 0.38 | 0.30 | 33 | 1005.1 |
| 20260507214504 | 17 | 310 | 9.7 | 29.0 | 0.00 | 0.38 | 0.30 | 33 | 1005.1 |
| 20260507214006 | 17 | 313 | 9.7 | 27.4 | 0.00 | 0.38 | 0.30 | 32 | 1005.1 |
| 20260507213504 | 17 | 307 | 11.3 | 22.5 | 0.00 | 0.38 | 0.30 | 32 | 1005.0 |
| 20260507213006 | 17 | 296 | 9.7 | 22.5 | 0.00 | 0.38 | 0.30 | 34 | 1005.0 |
| 20260507212006 | 17 | 99 | 6.4 | 16.1 | 0.00 | 0.38 | 0.30 | 33 | 1004.9 |
| 20260507211504 | 17 | 293 | 12.9 | 27.4 | 0.00 | 0.38 | 0.30 | 32 | 1004.9 |
| 20260507211006 | 17 | 232 | 4.8 | 24.1 | 0.00 | 0.38 | 0.30 | 33 | 1005.0 |
| 20260507210504 | 18 | 283 | 14.5 | 27.4 | 0.00 | 0.38 | 0.30 | 32 | 1004.9 |
| 20260507210005 | 18 | 242 | 12.9 | 27.4 | 0.00 | 0.38 | 0.30 | 32 | 1004.8 |
| 20260507205504 | 18 | 269 | 14.5 | 27.4 | 0.00 | 0.38 | 0.30 | 32 | 1004.9 |
| 20260507205006 | 18 | 213 | 9.7 | 32.2 | 0.00 | 0.38 | 0.30 | 32 | 1004.9 |
| 20260507204505 | 18 | 285 | 9.7 | 20.9 | 0.00 | 0.38 | 0.30 | 32 | 1004.9 |
| 20260507203504 | 18 | 298 | 19.3 | 33.8 | 0.00 | 0.38 | 0.30 | 30 | 1004.9 |
| 20260507203006 | 18 | 348 | 8.0 | 25.7 | 0.00 | 0.38 | 0.30 | 32 | 1004.9 |
| 20260507202504 | 17 | 276 | 9.7 | 29.0 | 0.00 | 0.38 | 0.30 | 32 | 1004.9 |
| 20260507201504 | 18 | 262 | 22.5 | 35.4 | 0.00 | 0.38 | 0.30 | 30 | 1004.8 |
| 20260507200504 | 18 | 262 | 4.8 | 20.9 | 0.00 | 0.38 | 0.30 | 31 | 1004.9 |
| 20260507200004 | 18 | 313 | 9.7 | 19.3 | 0.00 | 0.38 | 0.30 | 31 | 1004.9 |
| 20260507195504 | 18 | 320 | 14.5 | 27.4 | 0.00 | 0.38 | 0.30 | 32 | 1005.0 |
| 20260507195006 | 18 | 286 | 14.5 | 32.2 | 0.00 | 0.38 | 0.30 | 31 | 1005.1 |
| 20260507194504 | 18 | 291 | 11.3 | 20.9 | 0.00 | 0.38 | 0.30 | 30 | 1005.1 |
| 20260507193504 | 18 | 253 | 8.0 | 22.5 | 0.00 | 0.38 | 0.30 | 32 | 1005.0 |
| 20260507193007 | 18 | 281 | 8.0 | 19.3 | 0.00 | 0.38 | 0.30 | 31 | 1005.1 |
| 20260507192504 | 18 | 301 | 8.0 | 19.3 | 0.00 | 0.38 | 0.30 | 32 | 1005.2 |
| 20260507192006 | 18 | 284 | 20.9 | 29.0 | 0.00 | 0.38 | 0.30 | 30 | 1005.2 |
| 20260507191504 | 18 | 282 | 16.1 | 32.2 | 0.00 | 0.38 | 0.30 | 30 | 1005.3 |
| 20260507191006 | 18 | 224 | 19.3 | 29.0 | 0.00 | 0.38 | 0.30 | 31 | 1005.3 |
| 20260507190504 | 18 | 282 | 3.2 | 19.3 | 0.00 | 0.38 | 0.30 | 34 | 1005.2 |
| 20260507185504 | 18 | 207 | 17.7 | 29.0 | 0.00 | 0.38 | 0.30 | 31 | 1005.5 |
| 20260507185006 | 18 | 262 | 6.4 | 24.1 | 0.00 | 0.38 | 0.30 | 34 | 1005.4 |
| 20260507183504 | 18 | 352 | 4.8 | 19.3 | 0.00 | 0.38 | 0.30 | 37 | 1005.6 |
| 20260507183006 | 17 | 269 | 14.5 | 25.7 | 0.00 | 0.38 | 0.30 | 32 | 1005.7 |
| 20260507182007 | 17 | 295 | 16.1 | 32.2 | 0.00 | 0.38 | 0.30 | 35 | 1005.6 |
| 20260507181006 | 17 | 22 | 19.3 | 32.2 | 0.00 | 0.38 | 0.30 | 36 | 1005.9 |
| 20260507180504 | 17 | 286 | 20.9 | 32.2 | 0.00 | 0.38 | 0.30 | 36 | 1005.9 |
| 20260507175504 | 17 | 279 | 14.5 | 33.8 | 0.00 | 0.38 | 0.30 | 36 | 1006.0 |
| 20260507175006 | 18 | 214 | 14.5 | 25.7 | 0.00 | 0.38 | 0.30 | 39 | 1005.8 |
| 20260507174006 | 17 | 221 | 12.9 | 22.5 | 0.00 | 0.38 | 0.30 | 40 | 1005.9 |
| 20260507173504 | 17 | 312 | 8.0 | 19.3 | 0.00 | 0.38 | 0.30 | 42 | 1005.8 |
| 20260507173006 | 17 | 302 | 9.7 | 33.8 | 0.00 | 0.38 | 0.30 | 43 | 1005.9 |
| 20260507172504 | 17 | 240 | 14.5 | 33.8 | 0.00 | 0.38 | 0.30 | 43 | 1005.9 |
| 20260507171006 | 16 | 257 | 16.1 | 24.1 | 0.00 | 0.38 | 0.30 | 46 | 1006.0 |
| 20260507170504 | 17 | 276 | 16.1 | 27.4 | 0.00 | 0.38 | 0.30 | 45 | 1006.1 |
| 20260507170004 | 17 | 302 | 11.3 | 29.0 | 0.00 | 0.38 | 0.30 | 48 | 1006.2 |
| 20260507165504 | 17 | 266 | 16.1 | 29.0 | 0.00 | 0.38 | 0.30 | 48 | 1006.1 |
| 20260507164504 | 17 | 248 | 9.7 | 25.7 | 0.00 | 0.38 | 0.30 | 50 | 1006.2 |
| 20260507164006 | 17 | 250 | 19.3 | 32.2 | 0.00 | 0.38 | 0.30 | 49 | 1006.3 |
| 20260507163504 | 17 | 236 | 22.5 | 32.2 | 0.00 | 0.38 | 0.30 | 48 | 1006.3 |
| 20260507162504 | 16 | 227 | 16.1 | 27.4 | 0.00 | 0.38 | 0.30 | 53 | 1006.4 |
| 20260507162006 | 16 | 244 | 14.5 | 25.7 | 0.00 | 0.38 | 0.30 | 51 | 1006.5 |
| 20260507161504 | 16 | 239 | 9.7 | 25.7 | 0.00 | 0.38 | 0.30 | 53 | 1006.5 |
| 20260507161007 | 16 | 240 | 8.0 | 27.4 | 0.00 | 0.38 | 0.30 | 53 | 1006.6 |
| 20260507160504 | 16 | 304 | 8.0 | 24.1 | 0.00 | 0.38 | 0.30 | 54 | 1006.7 |
| 20260507160004 | 16 | 313 | 11.3 | 22.5 | 0.00 | 0.38 | 0.30 | 53 | 1006.7 |
| 20260507155504 | 16 | 245 | 19.3 | 25.7 | 0.00 | 0.38 | 0.30 | 51 | 1006.8 |
| 20260507155006 | 16 | 208 | 19.3 | 25.7 | 0.00 | 0.38 | 0.30 | 52 | 1006.9 |
| 20260507154504 | 15 | 318 | 11.3 | 19.3 | 0.00 | 0.38 | 0.30 | 54 | 1006.9 |
| 20260507154007 | 15 | 232 | 11.3 | 20.9 | 0.00 | 0.38 | 0.30 | 54 | 1007.0 |
| 20260507153504 | 15 | 262 | 9.7 | 25.7 | 0.00 | 0.38 | 0.30 | 53 | 1007.0 |
| 20260507153006 | 15 | 298 | 11.3 | 22.5 | 0.00 | 0.38 | 0.30 | 53 | 1007.0 |
| 20260507152503 | 15 | 322 | 9.7 | 19.3 | 0.00 | 0.38 | 0.30 | 53 | 1007.1 |
| 20260507152007 | 15 | 298 | 16.1 | 22.5 | 0.00 | 0.38 | 0.30 | 52 | 1007.1 |
| 20260507151504 | 15 | 271 | 11.3 | 19.3 | 0.00 | 0.38 | 0.30 | 53 | 1007.1 |
| 20260507151006 | 15 | 280 | 12.9 | 24.1 | 0.00 | 0.38 | 0.30 | 52 | 1007.2 |
| 20260507150504 | 15 | 315 | 11.3 | 19.3 | 0.00 | 0.38 | 0.30 | 50 | 1007.2 |
| 20260507150004 | 15 | 260 | 16.1 | 24.1 | 0.00 | 0.38 | 0.30 | 50 | 1007.3 |
| 20260507145504 | 15 | 280 | 8.0 | 29.0 | 0.00 | 0.38 | 0.30 | 50 | 1007.4 |
| 20260507145006 | 15 | 281 | 8.0 | 19.3 | 0.00 | 0.38 | 0.30 | 52 | 1007.5 |
| 20260507143504 | 14 | 263 | 12.9 | 29.0 | 0.00 | 0.38 | 0.30 | 53 | 1007.5 |
| 20260507143006 | 14 | 232 | 11.3 | 19.3 | 0.00 | 0.38 | 0.30 | 54 | 1007.5 |
| 20260507142504 | 14 | 262 | 6.4 | 19.3 | 0.00 | 0.38 | 0.30 | 55 | 1007.6 |
| 20260507142006 | 14 | 269 | 8.0 | 19.3 | 0.00 | 0.38 | 0.30 | 55 | 1007.7 |
| 20260507141504 | 14 | 286 | 3.2 | 12.9 | 0.00 | 0.38 | 0.30 | 56 | 1007.6 |
| 20260507141007 | 14 | 322 | 4.8 | 14.5 | 0.00 | 0.38 | 0.30 | 57 | 1007.7 |
| 20260507140503 | 13 | 253 | 11.3 | 16.1 | 0.00 | 0.38 | 0.30 | 58 | 1007.6 |
| 20260507135504 | 13 | 272 | 9.7 | 19.3 | 0.00 | 0.38 | 0.30 | 58 | 1007.6 |
| 20260507134503 | 13 | 323 | 3.2 | 14.5 | 0.00 | 0.38 | 0.30 | 60 | 1007.5 |
| 20260507134006 | 13 | 272 | 3.2 | 12.9 | 0.00 | 0.38 | 0.30 | 61 | 1007.6 |
| 20260507133504 | 13 | 305 | 6.4 | 14.5 | 0.00 | 0.38 | 0.30 | 60 | 1007.6 |
| 20260507133006 | 12 | 43 | 6.4 | 16.1 | 0.00 | 0.38 | 0.30 | 61 | 1007.7 |
| 20260507132504 | 12 | 327 | 8.0 | 19.3 | 0.00 | 0.38 | 0.30 | 61 | 1007.7 |
| 20260507132006 | 12 | 299 | 4.8 | 12.9 | 0.00 | 0.38 | 0.30 | 62 | 1007.8 |
| 20260507131504 | 12 | 320 | 4.8 | 16.1 | 0.00 | 0.38 | 0.30 | 62 | 1007.9 |
| 20260507131006 | 12 | 331 | 4.8 | 22.5 | 0.00 | 0.38 | 0.30 | 63 | 1007.8 |
| 20260507130504 | 12 | 332 | 4.8 | 16.1 | 0.00 | 0.38 | 0.30 | 65 | 1007.8 |
| 20260507130004 | 11 | 312 | 4.8 | 19.3 | 0.00 | 0.38 | 0.30 | 67 | 1008.0 |
| 20260507125504 | 11 | 322 | 8.0 | 16.1 | 0.00 | 0.38 | 0.30 | 69 | 1008.1 |
| 20260507125006 | 11 | 292 | 8.0 | 19.3 | 0.00 | 0.38 | 0.30 | 70 | 1008.1 |
| 20260507124504 | 11 | 316 | 3.2 | 9.7 | 0.00 | 0.38 | 0.30 | 74 | 1008.1 |
| 20260507124006 | 10 | 13 | 4.8 | 11.3 | 0.00 | 0.38 | 0.30 | 75 | 1008.0 |
| 20260507123504 | 10 | 277 | 8.0 | 12.9 | 0.00 | 0.38 | 0.30 | 75 | 1008.0 |
| 20260507123006 | 10 | 323 | 3.2 | 12.9 | 0.00 | 0.38 | 0.30 | 76 | 1008.0 |
| 20260507122504 | 10 | 290 | 4.8 | 16.1 | 0.00 | 0.38 | 0.30 | 76 | 1007.8 |
| 20260507122006 | 10 | 313 | 9.7 | 16.1 | 0.00 | 0.38 | 0.30 | 77 | 1008.0 |
| 20260507121504 | 10 | 346 | 3.2 | 14.5 | 0.00 | 0.38 | 0.30 | 78 | 1007.9 |
| 20260507120504 | 9 | 303 | 3.2 | 11.3 | 0.00 | 0.38 | 0.30 | 78 | 1007.9 |
| 20260507120004 | 9 | 303 | 8.0 | 12.9 | 0.00 | 0.38 | 0.30 | 78 | 1007.8 |
| 20260507115506 | 9 | 319 | 1.6 | 11.3 | 0.00 | 0.38 | 0.30 | 79 | 1007.9 |
| 20260507115006 | 9 | 272 | 3.2 | 11.3 | 0.00 | 0.38 | 0.30 | 79 | 1007.9 |
| 20260507114006 | 9 | 321 | 3.2 | 12.9 | 0.00 | 0.38 | 0.30 | 79 | 1007.6 |
| 20260507113006 | 9 | 307 | 1.6 | 9.7 | 0.00 | 0.38 | 0.30 | 79 | 1007.7 |
| 20260507112504 | 9 | 287 | 3.2 | 9.7 | 0.00 | 0.38 | 0.30 | 79 | 1007.6 |
| 20260507112006 | 9 | 312 | 3.2 | 4.8 | 0.00 | 0.38 | 0.30 | 79 | 1007.7 |
| 20260507111504 | 9 | 314 | 1.6 | 4.8 | 0.00 | 0.38 | 0.30 | 79 | 1007.6 |
| 20260507111005 | 9 | 300 | 1.6 | 4.8 | 0.03 | 0.38 | 0.30 | 79 | 1007.6 |
| 20260507110504 | 9 | 286 | 1.6 | 8.0 | 0.03 | 0.38 | 0.30 | 79 | 1007.4 |
| 20260507110005 | 9 | 303 | 1.6 | 8.0 | 0.03 | 0.38 | 0.30 | 79 | 1007.6 |
| 20260507105006 | 9 | 281 | 3.2 | 4.8 | 0.05 | 0.38 | 0.30 | 79 | 1007.9 |
| 20260507104504 | 9 | 229 | 3.2 | 4.8 | 0.08 | 0.38 | 0.30 | 79 | 1007.9 |
| 20260507104005 | 9 | 214 | 4.8 | 8.0 | 0.10 | 0.38 | 0.30 | 79 | 1008.0 |
| 20260507103006 | 9 | 265 | 1.6 | 4.8 | 0.13 | 0.38 | 0.30 | 79 | 1007.4 |
| 20260507102504 | 9 | 239 | 3.2 | 4.8 | 0.13 | 0.38 | 0.30 | 79 | 1007.4 |
| 20260507102007 | 9 | 264 | 0.0 | 4.8 | 0.15 | 0.38 | 0.30 | 79 | 1007.5 |
| 20260507101504 | 9 | 268 | 3.2 | 4.8 | 0.18 | 0.38 | 0.30 | 79 | 1007.5 |
| 20260507101006 | 9 | 294 | 1.6 | 11.3 | 0.18 | 0.36 | 0.28 | 78 | 1007.4 |
| 20260507100504 | 9 | 274 | 4.8 | 12.9 | 0.20 | 0.36 | 0.28 | 78 | 1007.4 |
| 20260507100004 | 9 | 310 | 1.6 | 12.9 | 0.20 | 0.36 | 0.28 | 78 | 1007.1 |
| 20260507095504 | 9 | 285 | 4.8 | 14.5 | 0.18 | 0.33 | 0.25 | 78 | 1007.1 |
| 20260507095006 | 9 | 289 | 4.8 | 11.3 | 0.20 | 0.33 | 0.25 | 78 | 1007.2 |
| 20260507094006 | 10 | 313 | 8.0 | 19.3 | 0.15 | 0.28 | 0.20 | 78 | 1007.1 |
| 20260507093006 | 10 | 21 | 6.4 | 16.1 | 0.13 | 0.25 | 0.18 | 78 | 1006.9 |
| 20260507092504 | 10 | 288 | 4.8 | 19.3 | 0.13 | 0.25 | 0.18 | 78 | 1007.0 |
| 20260507092006 | 10 | 287 | 1.6 | 8.0 | 0.13 | 0.23 | 0.15 | 78 | 1007.0 |
| 20260507091516 | 10 | 271 | 4.8 | 14.5 | 0.10 | 0.20 | 0.13 | 78 | 1007.1 |
| 20260507091033 | 11 | 289 | 3.2 | 12.9 | 0.08 | 0.18 | 0.10 | 78 | 1007.1 |
| 20260507090504 | 11 | 274 | 0.0 | 4.8 | 0.05 | 0.15 | 0.08 | 78 | 1007.3 |
| 20260507090004 | 11 | 275 | 1.6 | 4.8 | 0.05 | 0.15 | 0.08 | 78 | 1007.2 |
| 20260507085504 | 11 | 291 | 0.0 | 9.7 | 0.05 | 0.15 | 0.08 | 78 | 1007.2 |
| 20260507085005 | 11 | 262 | 4.8 | 11.3 | 0.03 | 0.13 | 0.05 | 78 | 1007.3 |
| 20260507084504 | 11 | 286 | 4.8 | 11.3 | 0.05 | 0.13 | 0.05 | 77 | 1007.1 |
| 20260507083504 | 11 | 292 | 4.8 | 11.3 | 0.05 | 0.13 | 0.05 | 77 | 1006.9 |
| 20260507083006 | 11 | 289 | 1.6 | 4.8 | 0.05 | 0.13 | 0.05 | 76 | 1006.9 |
| 20260507082504 | 11 | 324 | 3.2 | 4.8 | 0.05 | 0.13 | 0.05 | 76 | 1006.8 |
| 20260507082006 | 11 | 291 | 1.6 | 9.7 | 0.03 | 0.10 | 0.03 | 76 | 1006.5 |
| 20260507081504 | 11 | 291 | 1.6 | 9.7 | 0.03 | 0.10 | 0.03 | 75 | 1006.8 |
| 20260507080004 | 11 | 329 | 6.4 | 14.5 | 0.03 | 0.10 | 0.03 | 73 | 1006.7 |
| 20260507075504 | 12 | 9 | 6.4 | 14.5 | 0.03 | 0.10 | 0.03 | 73 | 1006.6 |
| 20260507075006 | 12 | 267 | 4.8 | 19.3 | 0.03 | 0.10 | 0.03 | 72 | 1006.8 |
| 20260507074504 | 12 | 330 | 9.7 | 19.3 | 0.00 | 0.08 | 0.00 | 71 | 1006.8 |
| 20260507074006 | 12 | 279 | 11.3 | 19.3 | 0.00 | 0.08 | 0.00 | 70 | 1006.9 |
| 20260507073504 | 12 | 280 | 3.2 | 9.7 | 0.00 | 0.08 | 0.00 | 70 | 1006.6 |
| 20260507073006 | 12 | 296 | 4.8 | 9.7 | 0.00 | 0.08 | 0.00 | 70 | 1006.1 |
| 20260507072504 | 12 | 345 | 1.6 | 12.9 | 0.00 | 0.08 | 0.00 | 70 | 1006.1 |
| 20260507072006 | 12 | 340 | 4.8 | 12.9 | 0.00 | 0.08 | 0.00 | 70 | 1006.1 |
| 20260507071005 | 12 | 296 | 8.0 | 22.5 | 0.00 | 0.08 | 0.00 | 70 | 1006.3 |
| 20260507070504 | 12 | 260 | 4.8 | 20.9 | 0.00 | 0.08 | 0.00 | 70 | 1006.1 |
| 20260507070008 | 12 | 322 | 6.4 | 16.1 | 0.00 | 0.08 | 0.00 | 71 | 1006.0 |
| 20260507065504 | 12 | 280 | 4.8 | 16.1 | 0.00 | 0.08 | 0.00 | 72 | 1006.2 |
| 20260507065006 | 12 | 252 | 8.0 | 16.1 | 0.00 | 0.08 | 0.00 | 72 | 1006.2 |
| 20260507064504 | 12 | 310 | 6.4 | 24.1 | 0.00 | 0.08 | 0.00 | 73 | 1006.3 |
| 20260507064006 | 12 | 45 | 4.8 | 16.1 | 0.00 | 0.08 | 0.00 | 74 | 1006.2 |
| 20260507063504 | 12 | 289 | 8.0 | 16.1 | 0.00 | 0.08 | 0.00 | 75 | 1006.1 |
| 20260507062006 | 13 | 292 | 1.6 | 14.5 | 0.00 | 0.08 | 0.00 | 76 | 1005.7 |
| 20260507061504 | 13 | 289 | 8.0 | 20.9 | 0.00 | 0.08 | 0.00 | 76 | 1005.8 |
| 20260507061006 | 13 | 282 | 4.8 | 14.5 | 0.00 | 0.08 | 0.00 | 76 | 1006.0 |
| 20260507060504 | 13 | 271 | 9.7 | 19.3 | 0.00 | 0.08 | 0.00 | 76 | 1006.2 |
| 20260507060004 | 13 | 277 | 9.7 | 16.1 | 0.00 | 0.08 | 0.00 | 76 | 1006.1 |
| 20260507055504 | 13 | 339 | 4.8 | 14.5 | 0.00 | 0.08 | 0.00 | 77 | 1006.1 |
| 20260507055006 | 13 | 282 | 1.6 | 11.3 | 0.00 | 0.08 | 0.00 | 77 | 1006.3 |
| 20260507054504 | 13 | 284 | 8.0 | 16.1 | 0.00 | 0.08 | 0.00 | 77 | 1006.5 |
| 20260507054006 | 13 | 248 | 11.3 | 20.9 | 0.00 | 0.08 | 0.00 | 77 | 1006.4 |
| 20260507053504 | 13 | 287 | 3.2 | 16.1 | 0.00 | 0.08 | 0.00 | 77 | 1006.3 |
| 20260507053006 | 13 | 304 | 9.7 | 19.3 | 0.00 | 0.08 | 0.00 | 77 | 1006.3 |
| 20260507051504 | 13 | 298 | 8.0 | 16.1 | 0.00 | 0.08 | 0.00 | 79 | 1006.1 |
| 20260507051006 | 13 | 264 | 8.0 | 19.3 | 0.00 | 0.08 | 0.00 | 79 | 1006.1 |
| 20260507050504 | 14 | 304 | 12.9 | 25.7 | 0.00 | 0.08 | 0.00 | 80 | 1006.1 |
| 20260507050005 | 14 | 289 | 14.5 | 29.0 | 0.00 | 0.08 | 0.00 | 80 | 1006.2 |
| 20260507045504 | 15 | 306 | 8.0 | 20.9 | 0.00 | 0.08 | 0.00 | 81 | 1006.1 |
| 20260507045006 | 15 | 271 | 11.3 | 20.9 | 0.00 | 0.08 | 0.00 | 81 | 1006.1 |
| 20260507043504 | 15 | 277 | 11.3 | 19.3 | 0.00 | 0.08 | 0.00 | 81 | 1005.8 |
| 20260507042504 | 15 | 243 | 9.7 | 14.5 | 0.00 | 0.08 | 0.00 | 81 | 1005.9 |
| 20260507042007 | 15 | 226 | 8.0 | 16.1 | 0.00 | 0.08 | 0.00 | 81 | 1006.0 |
| 20260507041006 | 15 | 273 | 6.4 | 11.3 | 0.00 | 0.08 | 0.00 | 81 | 1006.2 |
| 20260507040504 | 15 | 271 | 3.2 | 11.3 | 0.00 | 0.08 | 0.00 | 81 | 1006.3 |
| 20260507035006 | 15 | 224 | 11.3 | 19.3 | 0.00 | 0.08 | 0.08 | 81 | 1006.1 |
| 20260507034005 | 15 | 229 | 11.3 | 25.7 | 0.00 | 0.08 | 0.08 | 80 | 1005.9 |
| 20260507033504 | 15 | 225 | 14.5 | 27.4 | 0.00 | 0.08 | 0.08 | 80 | 1006.0 |
| 20260507033006 | 15 | 222 | 19.3 | 24.1 | 0.00 | 0.08 | 0.08 | 80 | 1005.9 |
| 20260507032504 | 15 | 219 | 16.1 | 25.7 | 0.00 | 0.08 | 0.08 | 80 | 1005.8 |
| 20260507032006 | 15 | 213 | 19.3 | 25.7 | 0.00 | 0.08 | 0.08 | 80 | 1005.7 |
| 20260507031504 | 15 | 214 | 16.1 | 25.7 | 0.00 | 0.08 | 0.08 | 79 | 1005.7 |
| 20260507030504 | 15 | 213 | 11.3 | 19.3 | 0.00 | 0.08 | 0.08 | 80 | 1005.4 |
| 20260507024504 | 15 | 217 | 16.1 | 25.7 | 0.00 | 0.08 | 0.08 | 79 | 1005.7 |
| 20260507024005 | 15 | 209 | 14.5 | 24.1 | 0.00 | 0.08 | 0.08 | 79 | 1005.7 |
| 20260507023504 | 15 | 225 | 17.7 | 25.7 | 0.00 | 0.08 | 0.08 | 79 | 1005.7 |
| 20260507022504 | 15 | 211 | 16.1 | 25.7 | 0.00 | 0.08 | 0.08 | 80 | 1005.7 |
| 20260507022006 | 15 | 232 | 12.9 | 22.5 | 0.00 | 0.08 | 0.08 | 80 | 1005.7 |
| 20260507021504 | 15 | 216 | 16.1 | 24.1 | 0.00 | 0.08 | 0.08 | 80 | 1005.8 |
| 20260507021006 | 15 | 217 | 14.5 | 20.9 | 0.00 | 0.08 | 0.08 | 80 | 1005.6 |
| 20260507020504 | 15 | 213 | 9.7 | 19.3 | 0.00 | 0.08 | 0.08 | 80 | 1005.7 |
| 20260507020004 | 15 | 220 | 9.7 | 19.3 | 0.00 | 0.08 | 0.08 | 80 | 1005.6 |
| 20260507015006 | 15 | 234 | 9.7 | 27.4 | 0.00 | 0.08 | 0.08 | 80 | 1005.8 |
| 20260507013504 | 15 | 211 | 17.7 | 25.7 | 0.00 | 0.08 | 0.08 | 80 | 1005.9 |
| 20260507012504 | 15 | 194 | 12.9 | 20.9 | 0.00 | 0.08 | 0.08 | 80 | 1006.0 |
| 20260507012006 | 15 | 211 | 14.5 | 29.0 | 0.00 | 0.08 | 0.08 | 80 | 1006.0 |
| 20260507011504 | 15 | 210 | 17.7 | 27.4 | 0.00 | 0.08 | 0.08 | 80 | 1006.1 |
| 20260507011006 | 15 | 220 | 16.1 | 29.0 | 0.00 | 0.08 | 0.08 | 80 | 1006.2 |
| 20260507010004 | 14 | 217 | 14.5 | 22.5 | 0.00 | 0.08 | 0.08 | 80 | 1006.2 |
| 20260507005504 | 14 | 205 | 14.5 | 22.5 | 0.03 | 0.08 | 0.08 | 80 | 1006.2 |
| 20260507005006 | 14 | 199 | 14.5 | 22.5 | 0.03 | 0.08 | 0.08 | 80 | 1006.1 |
| 20260507004503 | 14 | 202 | 9.7 | 22.5 | 0.03 | 0.08 | 0.08 | 80 | 1006.2 |
| 20260507004006 | 14 | 202 | 9.7 | 22.5 | 0.03 | 0.08 | 0.08 | 80 | 1006.1 |
| 20260507003504 | 14 | 199 | 9.7 | 19.3 | 0.03 | 0.08 | 0.08 | 80 | 1006.2 |
| 20260507003006 | 14 | 208 | 16.1 | 22.5 | 0.03 | 0.08 | 0.08 | 80 | 1006.1 |
| 20260507002504 | 14 | 223 | 14.5 | 24.1 | 0.05 | 0.08 | 0.08 | 80 | 1006.1 |
| 20260507001007 | 14 | 209 | 14.5 | 24.1 | 0.05 | 0.08 | 0.08 | 80 | 1005.8 |
| 20260507000505 | 14 | 207 | 16.1 | 32.2 | 0.05 | 0.08 | 0.08 | 80 | 1005.8 |
| 20260507000005 | 14 | 207 | 14.5 | 27.4 | 0.05 | 0.08 | 0.08 | 80 | 1005.9 |
| 20260506235504 | 14 | 207 | 14.5 | 25.7 | 0.03 | 0.05 | 0.05 | 81 | 1006.0 |